KCNU/CNU METAR and TAF weather

Enter ICAO airport designator
Station Type Date Time Source
KCNU METAR 2019/06/26 21:52 UTC NOAA

KCNU 262152Z AUTO 19014G20KT 10SM SCT035 SCT044 33/24 A3002 RMK AO2 SLP155 T03280239


Station Type Date Time Source
KCNU Decoded METAR 2019/06/26 21:52 UTC NOAA

CHANUTE JOHNSON AIRPORT, KS, United States (KCNU) 37-40N 95-29W 297M
Jun 26, 2019 - 05:52 PM EDT / 2019.06.26 2152 UTC
Wind: from the S (190 degrees) at 16 MPH (14 KT) gusting to 23 MPH (20 KT):0
Visibility: 10 mile(s):0
Sky conditions: partly cloudy
Temperature: 91.0 F (32.8 C)
Heat index: 101.5 F (38.6 C):1
Dew Point: 75.0 F (23.9 C)
Relative Humidity: 59%
Pressure (altimeter): 30.02 in. Hg (1016 hPa)
ob: KCNU 262152Z AUTO 19014G20KT 10SM SCT035 SCT044 33/24 A3002 RMK AO2 SLP155 T03280239
cycle: 22

Station Type Date Time Source
KCNU TAF 2019/06/26 21:34 UTC NOAA

TAF
AMD KCNU 262032Z 2621/2718 14009KT P6SM VCTS SCT035CB BKN150
FM270200 17009KT P6SM SKC

Example: see airport list